Terminal Aerodrome Forecast
Issued by NWS Tuscon, AZ

Home | Current Version | Previous Version | Text Only | Print | Product List | Glossary On
Versions: 1 2 3 4 5 6 7 8 9 10 11 12 13 14 15 16 17 18 19 20
000
FTUS45 KTWC 261730
TAFDUG
TAF
KDUG 261730Z 2618/2718 10009KT P6SM FEW080
     FM262100 35012G18KT P6SM VCTS SCT070CB BKN120
     FM270200 04009KT P6SM SCT060 BKN110
     FM270700 11006KT P6SM FEW100 SCT180=

USA.gov is the U.S. government's official web portal to all federal, state and local government web resources and services.